createdAt,value
2022-11-22T00:02:20.097Z,4.40
2022-11-22T00:05:22.875Z,2.93
2022-11-22T00:08:26.052Z,2.23
2022-11-22T00:11:30.315Z,3.13
2022-11-22T00:14:33.230Z,3.20
2022-11-22T00:17:36.634Z,4.27
2022-11-22T00:20:39.359Z,2.50
2022-11-22T00:23:43.025Z,2.07
2022-11-22T00:26:47.102Z,2.77
2022-11-22T00:29:50.075Z,3.20
2022-11-22T00:32:52.857Z,1.80
2022-11-22T00:35:55.959Z,2.07
2022-11-22T00:38:58.683Z,1.57
2022-11-22T00:42:03.523Z,0.90
2022-11-22T00:45:07.263Z,2.80
2022-11-22T00:48:10.635Z,2.10
2022-11-22T00:51:13.373Z,1.43
2022-11-22T00:54:16.152Z,1.40
2022-11-22T00:57:20.256Z,2.47
2022-11-22T01:00:23.201Z,2.00
2022-11-22T01:03:26.334Z,1.90
2022-11-22T01:06:29.147Z,1.77
2022-11-22T01:09:32.321Z,2.20
2022-11-22T01:12:36.697Z,1.70
2022-11-22T01:15:39.599Z,2.57
2022-11-22T01:18:42.332Z,2.57
2022-11-22T01:21:45.202Z,2.60
2022-11-22T01:24:48.075Z,2.33
2022-11-22T01:27:52.198Z,1.47
2022-11-22T01:30:55.943Z,2.00
2022-11-22T01:33:59.369Z,2.17
2022-11-22T01:37:02.189Z,2.70
2022-11-22T01:40:05.462Z,2.13
2022-11-22T01:43:17.513Z,2.73
2022-11-22T01:46:31.036Z,2.77
2022-11-22T01:49:41.208Z,2.90
2022-11-22T01:52:43.992Z,2.73
2022-11-22T01:55:47.113Z,2.67
2022-11-22T01:58:54.756Z,2.87
2022-11-22T02:01:58.464Z,3.00
2022-11-22T02:05:03.930Z,3.20
2022-11-22T02:08:13.456Z,4.03
2022-11-22T02:11:16.611Z,3.30
2022-11-22T02:14:26.429Z,3.60
2022-11-22T02:17:29.207Z,3.67
2022-11-22T02:20:33.129Z,3.87
2022-11-22T02:23:45.610Z,3.57
2022-11-22T02:26:49.708Z,3.60
2022-11-22T02:29:52.704Z,3.27
2022-11-22T02:32:55.397Z,2.90
2022-11-22T02:35:59.111Z,3.00
2022-11-22T02:39:02.088Z,3.90
2022-11-22T02:42:06.356Z,3.90
2022-11-22T02:45:09.617Z,3.67
2022-11-22T02:48:14.179Z,2.83
2022-11-22T02:51:19.972Z,3.60
2022-11-22T02:54:23.238Z,3.60
2022-11-22T02:57:27.321Z,2.53
2022-11-22T03:00:30.050Z,3.47
2022-11-22T03:03:33.579Z,3.30
2022-11-22T03:06:36.313Z,3.30
2022-11-22T03:09:39.519Z,3.47
2022-11-22T03:12:43.765Z,2.80
2022-11-22T03:15:48.168Z,3.57
2022-11-22T03:18:50.932Z,3.13
2022-11-22T03:21:53.736Z,3.43
2022-11-22T03:24:56.499Z,3.17
2022-11-22T03:28:00.607Z,3.20
2022-11-22T03:31:05.850Z,3.10
2022-11-22T03:34:08.819Z,2.77
2022-11-22T03:37:11.601Z,3.57
2022-11-22T03:40:14.812Z,1.53
2022-11-22T03:43:18.906Z,3.90
2022-11-22T03:46:21.695Z,3.57
2022-11-22T03:49:24.426Z,3.87
2022-11-22T03:52:27.218Z,3.40
2022-11-22T03:55:29.872Z,2.93
2022-11-22T03:58:34.629Z,4.30
2022-11-22T04:01:37.376Z,3.77
2022-11-22T04:04:40.164Z,3.40
2022-11-22T04:07:43.330Z,3.20
2022-11-22T04:10:46.058Z,3.77
2022-11-22T04:14:07.491Z,3.90
2022-11-22T04:17:13.362Z,3.10
2022-11-22T04:20:38.177Z,3.73
2022-11-22T04:23:43.031Z,3.47
2022-11-22T04:26:44.751Z,3.97
2022-11-22T04:29:48.819Z,4.60
2022-11-22T04:32:52.624Z,4.90
2022-11-22T04:35:56.010Z,6.67
2022-11-22T04:38:58.721Z,4.17
2022-11-22T04:42:19.291Z,4.17
2022-11-22T04:45:24.229Z,3.77
2022-11-22T04:48:26.933Z,3.73
2022-11-22T04:51:46.953Z,4.63
2022-11-22T04:54:49.992Z,3.47
2022-11-22T04:57:58.856Z,3.73
2022-11-22T05:01:04.133Z,4.03
2022-11-22T05:04:06.877Z,3.97
2022-11-22T05:07:10.235Z,4.30
2022-11-22T05:10:12.963Z,4.43
2022-11-22T05:13:15.633Z,4.57
2022-11-22T05:16:19.747Z,5.23
2022-11-22T05:19:22.422Z,4.57
2022-11-22T05:22:41.974Z,5.17
2022-11-22T05:25:44.736Z,6.77
2022-11-22T05:28:47.529Z,5.87
2022-11-22T05:31:51.972Z,5.97
2022-11-22T05:34:54.736Z,5.13
2022-11-22T05:37:57.845Z,4.77
2022-11-22T05:41:00.554Z,5.13
2022-11-22T05:44:04.354Z,4.33
2022-11-22T05:47:09.416Z,5.63
2022-11-22T05:50:12.250Z,4.87
2022-11-22T05:53:14.935Z,5.10
2022-11-22T05:56:19.575Z,5.13
2022-11-22T05:59:22.571Z,6.10
2022-11-22T06:02:26.854Z,4.97
2022-11-22T06:05:30.294Z,5.27
2022-11-22T06:08:36.716Z,6.80
2022-11-22T06:11:39.442Z,8.53
2022-11-22T06:14:43.708Z,8.83
2022-11-22T06:17:47.985Z,7.90
2022-11-22T06:20:50.689Z,5.73
2022-11-22T06:23:54.911Z,6.70
2022-11-22T06:26:57.624Z,5.53
2022-11-22T06:30:00.381Z,7.10
2022-11-22T06:33:04.991Z,10.13
2022-11-22T06:36:09.268Z,8.90
2022-11-22T06:39:12.020Z,8.33
2022-11-22T06:42:14.689Z,13.40
2022-11-22T06:45:18.066Z,13.63
2022-11-22T06:48:22.235Z,7.03
2022-11-22T06:51:26.464Z,6.07
2022-11-22T06:54:29.202Z,6.00
2022-11-22T06:57:31.959Z,7.30
2022-11-22T07:00:34.717Z,5.57
2022-11-22T07:03:39.512Z,6.60
2022-11-22T07:06:44.315Z,6.63
2022-11-22T07:09:47.024Z,6.83
2022-11-22T07:12:50.204Z,8.93
2022-11-22T07:15:57.273Z,13.13
2022-11-22T07:19:01.508Z,8.20
2022-11-22T07:22:05.437Z,8.10
2022-11-22T07:25:08.794Z,8.33
2022-11-22T07:28:11.524Z,7.10
2022-11-22T07:31:15.631Z,7.33
2022-11-22T07:34:20.292Z,6.50
2022-11-22T07:37:23.032Z,6.47
2022-11-22T07:40:26.012Z,8.90
2022-11-22T07:43:28.892Z,7.40
2022-11-22T07:46:33.345Z,8.40
2022-11-22T07:49:38.967Z,10.93
2022-11-22T07:52:41.680Z,10.07
2022-11-22T07:55:44.468Z,10.37
2022-11-22T07:58:47.477Z,8.20
2022-11-22T08:01:50.436Z,8.47
2022-11-22T08:04:54.668Z,9.20
2022-11-22T08:07:57.689Z,10.63
2022-11-22T08:11:01.146Z,8.93
2022-11-22T08:14:04.539Z,8.23
2022-11-22T08:17:07.327Z,8.47
2022-11-22T08:20:13.191Z,7.90
2022-11-22T08:23:15.927Z,8.67
2022-11-22T08:26:21.112Z,9.10
2022-11-22T08:29:24.340Z,8.47
2022-11-22T08:32:27.133Z,8.50
2022-11-22T08:35:31.344Z,8.10
2022-11-22T08:38:34.562Z,9.27
2022-11-22T08:41:37.255Z,6.87
2022-11-22T08:44:39.986Z,8.03
2022-11-22T08:47:42.685Z,7.70
2022-11-22T08:50:53.311Z,6.57
2022-11-22T08:53:56.874Z,7.53
2022-11-22T08:56:59.607Z,18.80
2022-11-22T09:00:03.776Z,8.17
2022-11-22T09:03:06.499Z,5.27
2022-11-22T09:09:37.689Z,5.73
2022-11-22T09:12:44.743Z,7.73
2022-11-22T09:15:47.687Z,6.07
2022-11-22T09:18:50.704Z,7.27
2022-11-22T09:21:54.803Z,8.23
2022-11-22T09:24:57.542Z,9.63
2022-11-22T09:28:02.617Z,8.57
2022-11-22T09:31:07.440Z,6.00
2022-11-22T09:34:10.172Z,6.87
2022-11-22T09:37:17.226Z,6.90
2022-11-22T09:40:20.356Z,6.00
2022-11-22T09:43:34.565Z,6.73
2022-11-22T09:46:44.401Z,6.73
2022-11-22T09:50:01.143Z,7.63
2022-11-22T09:53:13.166Z,8.03
2022-11-22T09:56:17.713Z,6.40
2022-11-22T09:59:24.712Z,6.40
2022-11-22T10:02:43.523Z,11.67
2022-11-22T10:05:54.171Z,7.87
2022-11-22T10:09:08.218Z,7.20
2022-11-22T10:12:17.585Z,8.13
2022-11-22T10:15:30.325Z,5.93
2022-11-22T10:18:39.530Z,4.87
2022-11-22T10:21:42.451Z,2.27
2022-11-22T10:24:46.691Z,1.50
2022-11-22T10:27:57.656Z,1.40
2022-11-22T10:31:08.908Z,1.40
2022-11-22T10:34:21.012Z,1.30
2022-11-22T10:37:36.173Z,1.27
2022-11-22T10:40:48.313Z,1.40
2022-11-22T10:44:06.279Z,1.27
2022-11-22T10:47:16.751Z,1.17
2022-11-22T10:50:24.820Z,1.50
2022-11-22T10:53:41.913Z,1.40
2022-11-22T10:56:53.907Z,1.60
2022-11-22T11:00:07.153Z,1.83
2022-11-22T11:03:21.916Z,1.23
2022-11-22T11:06:49.875Z,1.13
2022-11-22T11:10:10.787Z,1.37
2022-11-22T11:13:24.444Z,3.63
2022-11-22T11:16:31.218Z,1.60
2022-11-22T11:19:38.793Z,4.10
2022-11-22T11:23:13.117Z,2.90
2022-11-22T11:26:22.147Z,1.00
2022-11-22T11:29:38.473Z,1.43
2022-11-22T11:32:52.830Z,1.90
2022-11-22T11:36:04.873Z,2.13
2022-11-22T11:39:20.938Z,1.50
2022-11-22T11:42:26.952Z,2.10
2022-11-22T11:45:31.259Z,1.10
2022-11-22T11:48:38.877Z,1.87
2022-11-22T11:51:43.940Z,1.30
2022-11-22T11:54:49.717Z,1.50
2022-11-22T11:57:54.204Z,1.63
2022-11-22T12:00:58.793Z,1.20
2022-11-22T12:04:04.593Z,1.17
2022-11-22T12:07:19.362Z,1.00
2022-11-22T12:10:31.612Z,1.20
2022-11-22T12:13:57.616Z,1.10
2022-11-22T12:17:11.347Z,3.33
2022-11-22T12:20:19.605Z,1.57
2022-11-22T12:23:25.565Z,1.40
2022-11-22T12:26:30.084Z,1.00
2022-11-22T12:29:36.330Z,1.00
2022-11-22T12:32:46.244Z,1.00
2022-11-22T12:35:50.854Z,1.33
2022-11-22T12:38:54.576Z,1.40
2022-11-22T12:42:02.202Z,1.30
2022-11-22T12:45:12.882Z,1.30
2022-11-22T12:48:22.728Z,1.10
2022-11-22T12:51:29.724Z,1.30
2022-11-22T12:54:36.030Z,1.43
2022-11-22T12:57:43.752Z,1.17
2022-11-22T13:01:02.336Z,1.30
2022-11-22T13:04:16.217Z,1.07
2022-11-22T13:07:26.610Z,1.20
2022-11-22T13:10:37.520Z,1.20
2022-11-22T13:13:44.771Z,1.07
2022-11-22T13:16:47.712Z,1.10
2022-11-22T13:19:55.227Z,0.93
2022-11-22T13:23:08.928Z,1.40
2022-11-22T13:26:20.633Z,1.10
2022-11-22T13:29:26.507Z,1.10
2022-11-22T13:32:32.417Z,1.10
2022-11-22T13:35:38.066Z,0.73
2022-11-22T13:38:43.569Z,1.13
2022-11-22T13:41:54.138Z,1.30
2022-11-22T13:45:13.683Z,1.17
2022-11-22T13:48:55.310Z,1.30
2022-11-22T13:52:00.757Z,1.10
2022-11-22T13:55:37.235Z,1.20
2022-11-22T13:58:52.798Z,1.10
2022-11-22T14:02:01.202Z,1.50
2022-11-22T14:05:04.721Z,2.03
2022-11-22T14:08:29.312Z,2.00
2022-11-22T14:11:41.867Z,1.53
2022-11-22T14:14:57.123Z,1.20
2022-11-22T14:18:20.430Z,1.73
2022-11-22T14:22:00.976Z,1.83
2022-11-22T14:25:31.339Z,1.87
2022-11-22T14:29:02.294Z,1.60
2022-11-22T14:32:14.588Z,1.37
2022-11-22T14:35:27.787Z,1.50
2022-11-22T14:38:33.405Z,1.47
2022-11-22T14:41:45.159Z,2.00
2022-11-22T14:44:52.128Z,1.70
2022-11-22T14:48:02.685Z,1.10
2022-11-22T14:51:16.263Z,1.03
2022-11-22T14:54:23.497Z,7.13
2022-11-22T14:57:30.555Z,4.93
2022-11-22T15:00:50.479Z,3.50
2022-11-22T15:09:13.288Z,2.77
2022-11-22T15:09:14.156Z,2.17
2022-11-22T15:12:10.067Z,2.83
2022-11-22T16:00:21.719Z,5.10
2022-11-22T16:03:28.010Z,12.43
2022-11-22T16:06:33.198Z,7.30
2022-11-22T16:09:38.516Z,7.20
2022-11-22T16:12:41.502Z,5.53
2022-11-22T16:15:46.627Z,6.30
2022-11-22T16:18:50.782Z,2.93
2022-11-22T16:21:59.183Z,4.33
2022-11-22T16:25:32.662Z,8.30
2022-11-22T16:28:36.392Z,4.40
2022-11-22T16:31:41.324Z,4.10
2022-11-22T16:34:44.285Z,3.10
2022-11-22T16:37:48.559Z,4.27
2022-11-22T16:40:52.624Z,4.20
2022-11-22T16:43:57.400Z,4.47
2022-11-22T16:47:00.973Z,5.40
2022-11-22T16:50:03.860Z,4.93
2022-11-22T16:53:12.314Z,7.47
2022-11-22T16:56:20.549Z,4.67
2022-11-22T16:59:23.295Z,4.57
2022-11-22T17:02:32.761Z,4.60
2022-11-22T17:05:35.584Z,3.97
2022-11-22T17:08:39.643Z,3.93
2022-11-22T17:11:43.865Z,1.43
2022-11-22T17:14:48.445Z,1.20
2022-11-22T17:17:51.161Z,5.40
2022-11-22T17:20:54.504Z,3.10
2022-11-22T17:24:01.105Z,2.20
2022-11-22T17:27:04.207Z,1.70
2022-11-22T17:30:08.462Z,1.30
2022-11-22T17:33:12.246Z,1.30
2022-11-22T17:36:24.297Z,2.00
2022-11-22T17:39:28.634Z,1.40
2022-11-22T17:42:32.863Z,1.43
2022-11-22T17:45:42.513Z,1.37
2022-11-22T17:48:45.293Z,1.10
2022-11-22T17:51:48.058Z,2.47
2022-11-22T17:54:52.131Z,1.63
2022-11-22T17:57:56.061Z,2.30
2022-11-22T18:01:06.384Z,3.80
2022-11-22T18:04:09.183Z,4.50
2022-11-22T18:07:12.440Z,4.90
2022-11-22T18:10:16.646Z,6.17
2022-11-22T18:13:21.914Z,2.33
2022-11-22T18:16:28.517Z,2.17
2022-11-22T18:19:31.762Z,1.53
2022-11-22T18:22:34.724Z,2.90
2022-11-22T18:25:39.348Z,2.10
2022-11-22T18:28:42.677Z,2.10
2022-11-22T18:31:53.909Z,2.00
2022-11-22T18:34:57.058Z,3.83
2022-11-22T18:38:00.381Z,0.90
2022-11-22T18:41:05.860Z,6.43
2022-11-22T18:44:10.029Z,8.70
2022-11-22T18:47:12.819Z,1.87
2022-11-22T18:53:23.260Z,3.60
2022-11-22T18:56:27.773Z,1.00
2022-11-22T18:59:31.270Z,1.73
2022-11-22T19:02:34.271Z,1.20
2022-11-22T19:05:40.012Z,1.30
2022-11-22T19:08:43.491Z,1.30
2022-11-22T19:11:47.759Z,1.50
2022-11-22T19:14:50.570Z,1.43
2022-11-22T19:17:53.749Z,1.37
2022-11-22T19:20:56.632Z,1.37
2022-11-22T19:23:59.646Z,0.97
2022-11-22T19:27:03.744Z,0.97
2022-11-22T19:30:07.875Z,1.20
2022-11-22T19:33:10.576Z,1.20
2022-11-22T19:36:14.639Z,1.10
2022-11-22T19:39:19.859Z,0.90
2022-11-22T19:42:24.015Z,1.30
2022-11-22T19:45:26.763Z,1.30
2022-11-22T19:48:29.879Z,1.60
2022-11-22T19:51:32.881Z,1.83
2022-11-22T19:54:35.772Z,2.20
2022-11-22T19:57:39.851Z,1.87
2022-11-22T20:00:42.820Z,1.80
2022-11-22T20:03:46.323Z,1.13
2022-11-22T20:06:50.487Z,2.17
2022-11-22T20:09:53.675Z,1.70
2022-11-22T20:12:58.334Z,0.90
2022-11-22T20:16:07.342Z,0.90
2022-11-22T20:19:12.479Z,1.13
2022-11-22T20:22:15.282Z,2.20
2022-11-22T20:25:18.572Z,1.30
2022-11-22T20:28:22.607Z,1.87
2022-11-22T20:31:26.019Z,1.63
2022-11-22T20:34:29.661Z,2.10
2022-11-22T20:37:32.776Z,1.83
2022-11-22T20:40:35.681Z,2.83
2022-11-22T20:43:40.590Z,3.70
2022-11-22T20:46:44.441Z,2.90
2022-11-22T20:49:47.248Z,3.43
2022-11-22T20:52:49.934Z,5.47
2022-11-22T20:55:52.990Z,4.13
2022-11-22T20:58:57.024Z,4.43
2022-11-22T21:01:59.822Z,3.30
2022-11-22T21:05:03.584Z,4.30
2022-11-22T21:08:06.824Z,4.17
2022-11-22T21:11:12.736Z,4.20
2022-11-22T21:14:18.102Z,3.73
2022-11-22T21:17:41.897Z,3.10
2022-11-22T21:20:43.603Z,3.37
2022-11-22T21:23:46.360Z,2.50
2022-11-22T21:26:49.071Z,2.53
2022-11-22T21:29:53.229Z,2.70
2022-11-22T21:32:55.980Z,2.93
2022-11-22T21:35:58.675Z,3.37
2022-11-22T21:39:02.095Z,3.37
2022-11-22T21:42:05.080Z,3.17
2022-11-22T21:45:10.378Z,4.30
2022-11-22T21:48:13.320Z,4.50
2022-11-22T21:51:16.124Z,4.67
2022-11-22T21:54:18.992Z,3.53
2022-11-22T21:57:21.812Z,3.63
2022-11-22T22:00:25.924Z,8.03
2022-11-22T22:03:29.834Z,5.10
2022-11-22T22:06:32.974Z,3.77
2022-11-22T22:09:35.655Z,3.40
2022-11-22T22:12:39.539Z,4.37
2022-11-22T22:15:43.666Z,4.17
2022-11-22T22:18:47.169Z,4.33
2022-11-22T22:21:49.946Z,3.70
2022-11-22T22:24:52.624Z,3.80
2022-11-22T22:27:57.313Z,4.13
2022-11-22T22:31:06.361Z,3.83
2022-11-22T22:34:09.091Z,3.87
2022-11-22T22:37:11.815Z,4.10
2022-11-22T22:40:15.870Z,5.90
2022-11-22T22:43:18.572Z,5.57
2022-11-22T22:46:24.789Z,5.70
2022-11-22T22:49:27.611Z,5.67
2022-11-22T22:52:30.297Z,7.53
2022-11-22T22:55:33.027Z,4.00
2022-11-22T22:58:36.847Z,2.70
2022-11-22T23:01:40.959Z,3.23
2022-11-22T23:04:43.733Z,3.70
2022-11-22T23:07:46.653Z,3.93
2022-11-22T23:10:49.417Z,3.97
2022-11-22T23:13:52.146Z,3.50
2022-11-22T23:16:58.345Z,3.43
2022-11-22T23:20:02.233Z,3.47
2022-11-22T23:23:04.972Z,3.40
2022-11-22T23:26:10.357Z,3.57
2022-11-22T23:29:13.371Z,3.43
2022-11-22T23:32:17.559Z,3.13
2022-11-22T23:35:20.316Z,3.60
2022-11-22T23:38:23.034Z,2.80
2022-11-22T23:41:26.304Z,2.90
2022-11-22T23:44:29.068Z,2.53
2022-11-22T23:47:33.136Z,2.50
2022-11-22T23:50:37.448Z,2.60
2022-11-22T23:53:40.960Z,2.80
2022-11-22T23:56:43.947Z,2.67
2022-11-22T23:59:46.646Z,2.97
